Time;durP1;ratioP1;P1;durP2;ratioP2;P2;SDS_P1;SDS_P2;PMS_P1;PMS_P2;Temp;Humidity;BMP_temperature;BMP_pressure;BME280_temperature;BME280_humidity;BME280_pressure;Samples;Min_cycle;Max_cycle;Signal;HPM_P1;HPM_P2
2024/01/04 00:00:16;;;;;;;2.40;1.40;;;;;;;7.05;86.58;94289.14;106831;1274;22778;-80
2024/01/04 00:03:05;;;;;;;2.90;1.30;;;;;;;7.11;86.46;94287.42;106801;1274;22644;-80
2024/01/04 00:05:33;;;;;;;1.70;1.40;;;;;;;7.11;86.55;94297.89;106731;1263;24225;-80
2024/01/04 00:08:01;;;;;;;1.40;1.30;;;;;;;7.12;86.56;94295.77;106868;1274;22516;-80
2024/01/04 00:10:29;;;;;;;3.70;1.10;;;;;;;7.10;86.46;94305.79;106785;1274;22521;-81
2024/01/04 00:12:58;;;;;;;1.30;1.00;;;;;;;7.08;86.41;94314.95;106825;1274;22776;-81
2024/01/04 00:15:26;;;;;;;0.80;0.60;;;;;;;7.09;86.11;94313.34;106902;1274;25240;-77
2024/01/04 00:17:54;;;;;;;0.90;0.80;;;;;;;7.11;84.54;94296.16;106821;1274;24221;-78
2024/01/04 00:20:24;;;;;;;0.60;0.60;;;;;;;7.13;84.66;94288.23;106826;1274;25487;-80
2024/01/04 00:22:52;;;;;;;1.30;0.90;;;;;;;7.10;84.61;94277.11;106986;1274;22636;-81
2024/01/04 00:25:21;;;;;;;1.90;0.80;;;;;;;7.07;84.66;94259.37;107019;1274;25284;-81
2024/01/04 00:27:49;;;;;;;1.00;0.90;;;;;;;6.98;84.65;94254.52;106678;1275;25412;-81
2024/01/04 00:30:17;;;;;;;0.60;0.50;;;;;;;6.84;84.24;94253.67;106689;1276;22552;-79
2024/01/04 00:32:46;;;;;;;0.90;0.40;;;;;;;6.81;83.57;94263.90;106593;1276;22520;-82
2024/01/04 00:35:14;;;;;;;0.40;0.40;;;;;;;6.79;83.28;94267.77;106651;1276;22528;-79
2024/01/04 00:37:42;;;;;;;0.60;0.50;;;;;;;6.74;83.43;94265.11;106625;1272;22732;-81
2024/01/04 00:40:11;;;;;;;1.30;0.60;;;;;;;6.61;83.49;94257.94;106564;1276;22521;-80
2024/01/04 00:42:39;;;;;;;1.80;0.80;;;;;;;6.52;83.53;94263.04;106772;1276;22528;-80
2024/01/04 00:45:07;;;;;;;1.10;0.70;;;;;;;6.52;83.77;94271.42;106435;1254;22520;-80
2024/01/04 00:47:36;;;;;;;2.40;1.00;;;;;;;6.49;83.64;94270.79;106470;1276;25379;-80
2024/01/04 00:50:05;;;;;;;1.50;0.80;;;;;;;6.47;83.56;94268.39;106646;1276;22525;-81
2024/01/04 00:52:33;;;;;;;2.30;0.80;;;;;;;6.47;83.63;94260.71;106636;1276;25416;-80
2024/01/04 00:55:01;;;;;;;1.60;0.90;;;;;;;6.43;83.81;94265.70;106616;1276;24407;-81
2024/01/04 00:57:29;;;;;;;3.90;1.20;;;;;;;6.47;83.77;94261.91;106725;1276;25431;-81
2024/01/04 00:59:57;;;;;;;2.90;1.00;;;;;;;6.51;83.62;94257.80;106557;1276;22650;-80
2024/01/04 01:02:25;;;;;;;0.90;0.80;;;;;;;6.48;83.61;94260.16;106597;1276;24369;-80
2024/01/04 01:04:54;;;;;;;3.80;1.10;;;;;;;6.51;83.53;94260.25;106716;1276;22513;-79
2024/01/04 01:07:22;;;;;;;3.90;1.10;;;;;;;6.48;83.41;94261.20;106438;1276;22536;-80
2024/01/04 01:09:50;;;;;;;3.10;0.90;;;;;;;6.46;83.44;94260.73;106604;1272;22524;-80
2024/01/04 01:12:18;;;;;;;2.60;1.20;;;;;;;6.42;83.40;94256.63;106699;1276;23880;-80
2024/01/04 01:14:47;;;;;;;4.20;1.40;;;;;;;6.41;83.52;94255.43;106619;1276;22523;-81
2024/01/04 01:17:15;;;;;;;4.10;1.50;;;;;;;6.53;83.20;94261.95;106559;1276;23139;-81
2024/01/04 01:19:43;;;;;;;2.90;1.40;;;;;;;6.56;83.05;94257.70;106664;1276;25358;-81
2024/01/04 01:22:12;;;;;;;1.80;1.20;;;;;;;6.57;82.88;94252.45;106630;1276;23263;-81
2024/01/04 01:24:40;;;;;;;3.50;1.30;;;;;;;6.50;82.73;94255.05;106703;1265;22510;-81
2024/01/04 01:27:09;;;;;;;1.80;1.20;;;;;;;6.47;82.79;94250.05;106652;1274;22586;-80
2024/01/04 01:29:37;;;;;;;2.60;1.20;;;;;;;6.43;82.73;94253.80;106737;1274;22674;-81
2024/01/04 01:32:06;;;;;;;3.10;1.40;;;;;;;6.38;82.97;94251.15;106838;1274;24203;-81
2024/01/04 01:34:34;;;;;;;1.70;1.10;;;;;;;6.39;82.84;94251.63;106645;1274;22650;-81
2024/01/04 01:37:02;;;;;;;3.20;1.10;;;;;;;6.54;82.45;94250.94;106823;1274;25411;-80
2024/01/04 01:39:30;;;;;;;2.40;1.10;;;;;;;6.59;82.37;94246.10;106852;1274;22639;-80
2024/01/04 01:41:58;;;;;;;4.30;1.20;;;;;;;6.61;82.22;94240.96;106811;1274;22615;-80
2024/01/04 01:44:26;;;;;;;9.30;2.30;;;;;;;6.61;82.21;94240.46;106752;1274;22513;-80
2024/01/04 01:46:55;;;;;;;2.60;1.20;;;;;;;6.60;81.93;94241.52;106847;1274;25500;-81
2024/01/04 01:49:23;;;;;;;1.60;0.90;;;;;;;6.63;81.94;94240.40;106716;1274;25245;-81
2024/01/04 01:51:53;;;;;;;3.30;1.30;;;;;;;6.54;81.87;94238.00;106818;1274;24275;-80
2024/01/04 01:54:22;;;;;;;1.70;1.00;;;;;;;6.44;82.25;94232.65;106851;1274;22511;-80
2024/01/04 01:56:51;;;;;;;1.00;0.90;;;;;;;6.47;82.30;94235.02;106821;1274;24281;-80
2024/01/04 01:59:20;;;;;;;2.80;1.20;;;;;;;6.48;82.14;94234.48;106781;1274;24353;-81
2024/01/04 02:01:55;;;;;;;2.20;1.20;;;;;;;6.47;82.14;94236.08;106667;1274;22777;-81
2024/01/04 02:04:23;;;;;;;2.50;1.40;;;;;;;6.47;82.16;94230.14;106754;1274;25368;-81
2024/01/04 02:06:51;;;;;;;2.80;1.00;;;;;;;6.44;82.19;94234.58;106757;1274;22521;-81
2024/01/04 02:09:19;;;;;;;3.70;1.60;;;;;;;6.46;82.11;94232.78;106785;1271;24295;-81
2024/01/04 02:11:47;;;;;;;5.90;2.10;;;;;;;6.44;82.00;94226.70;106672;1274;24378;-80
2024/01/04 02:14:16;;;;;;;3.00;1.40;;;;;;;6.42;81.98;94222.76;106854;1274;22720;-80
2024/01/04 02:16:44;;;;;;;3.70;0.90;;;;;;;6.41;81.88;94216.65;106728;1274;24372;-81
2024/01/04 02:19:13;;;;;;;5.60;1.50;;;;;;;6.43;81.90;94217.81;106803;1274;22539;-81
2024/01/04 02:21:41;;;;;;;3.80;1.10;;;;;;;6.36;81.72;94219.06;106795;1274;22527;-81
2024/01/04 02:24:10;;;;;;;3.90;1.40;;;;;;;6.29;82.07;94216.77;106810;1274;24268;-81
2024/01/04 02:26:38;;;;;;;3.10;1.30;;;;;;;6.23;81.91;94213.27;106786;1274;22549;-81
2024/01/04 02:29:06;;;;;;;3.20;1.40;;;;;;;6.19;81.81;94220.34;106718;1274;24345;-80
2024/01/04 02:31:34;;;;;;;2.20;0.90;;;;;;;6.35;81.27;94216.27;106830;1274;24213;-81
2024/01/04 02:34:03;;;;;;;3.20;1.10;;;;;;;6.47;81.05;94229.79;106775;1274;22519;-81
2024/01/04 02:36:32;;;;;;;2.80;1.10;;;;;;;6.50;80.83;94226.58;106762;1274;22511;-81
2024/01/04 02:39:00;;;;;;;3.70;1.30;;;;;;;6.49;80.68;94222.92;106736;1274;25245;-81
2024/01/04 02:41:28;;;;;;;1.90;0.80;;;;;;;6.42;80.66;94223.80;106680;1262;24321;-79
2024/01/04 02:43:56;;;;;;;2.30;1.10;;;;;;;6.39;80.88;94233.84;106710;1274;24065;-81
2024/01/04 02:46:24;;;;;;;3.40;1.50;;;;;;;6.43;80.83;94222.70;106804;1274;25360;-80
2024/01/04 02:48:52;;;;;;;4.40;1.30;;;;;;;6.47;80.84;94214.77;106844;1274;22644;-80
2024/01/04 02:51:21;;;;;;;2.50;1.00;;;;;;;6.44;80.83;94221.83;106801;1274;22521;-80
2024/01/04 02:53:49;;;;;;;4.00;1.00;;;;;;;6.50;80.79;94216.96;106853;1274;24394;-80
2024/01/04 02:56:17;;;;;;;4.30;1.40;;;;;;;6.47;80.51;94221.40;106776;1274;25436;-80
2024/01/04 02:58:46;;;;;;;1.80;1.00;;;;;;;6.39;80.50;94223.52;106778;1253;24209;-80
2024/01/04 03:01:21;;;;;;;3.10;1.10;;;;;;;6.50;80.28;94218.54;106823;1274;24476;-80
2024/01/04 03:03:55;;;;;;;3.70;1.20;;;;;;;6.62;80.19;94211.95;106766;1274;24504;-81
2024/01/04 03:06:25;;;;;;;7.00;1.20;;;;;;;6.63;79.84;94203.88;106800;1271;24198;-80
2024/01/04 03:08:54;;;;;;;2.60;0.90;;;;;;;6.72;79.70;94204.67;106658;1274;25344;-80
2024/01/04 03:11:22;;;;;;;3.10;1.00;;;;;;;6.82;79.34;94205.84;106884;1274;25578;-81
2024/01/04 03:13:50;;;;;;;6.40;1.10;;;;;;;6.92;78.85;94206.45;106814;1274;25387;-81
2024/01/04 03:16:20;;;;;;;8.90;1.10;;;;;;;6.98;78.34;94198.94;106787;1274;25899;-80
2024/01/04 03:18:49;;;;;;;2.10;0.90;;;;;;;7.08;77.97;94201.63;106855;1274;24265;-79
2024/01/04 03:21:17;;;;;;;4.40;1.30;;;;;;;7.16;77.22;94190.21;106758;1274;25368;-79
2024/01/04 03:23:46;;;;;;;2.30;0.70;;;;;;;7.27;76.86;94177.13;106851;1274;25578;-80
2024/01/04 03:26:14;;;;;;;3.60;1.20;;;;;;;7.41;76.43;94167.48;106802;1274;22527;-80
2024/01/04 03:28:42;;;;;;;1.70;1.10;;;;;;;7.48;75.74;94163.96;106830;1274;25350;-79
2024/01/04 03:31:10;;;;;;;3.00;1.20;;;;;;;7.54;75.11;94159.58;106863;1274;25316;-80
2024/01/04 03:33:38;;;;;;;2.30;1.00;;;;;;;7.57;75.29;94161.39;106798;1274;25373;-80
2024/01/04 03:36:09;;;;;;;3.00;1.60;;;;;;;7.59;74.98;94153.83;106704;1274;24209;-80
2024/01/04 03:38:37;;;;;;;4.20;1.50;;;;;;;7.56;75.21;94154.25;106819;1274;25632;-79
2024/01/04 03:41:06;;;;;;;5.30;1.30;;;;;;;7.58;75.12;94145.63;106814;1274;25507;-81
2024/01/04 03:43:35;;;;;;;4.20;1.00;;;;;;;7.57;74.92;94146.35;106926;1274;22631;-80
2024/01/04 03:46:09;;;;;;;4.70;1.30;;;;;;;7.64;74.49;94153.14;106831;1274;22527;-79
2024/01/04 03:48:37;;;;;;;9.70;1.90;;;;;;;7.69;74.47;94144.42;106846;1259;22520;-80
2024/01/04 03:51:06;;;;;;;3.60;1.30;;;;;;;7.70;74.93;94150.52;106728;1274;22628;-80
2024/01/04 03:53:34;;;;;;;3.10;1.20;;;;;;;7.68;75.15;94145.50;106665;1274;22534;-80
2024/01/04 03:56:04;;;;;;;4.60;1.10;;;;;;;7.63;75.40;94148.98;106788;1274;25312;-80
2024/01/04 03:58:33;;;;;;;4.80;1.10;;;;;;;7.57;75.52;94149.17;106885;1274;25525;-80
2024/01/04 04:01:02;;;;;;;7.70;1.10;;;;;;;7.48;75.88;94143.83;106827;1274;22517;-80
2024/01/04 04:03:31;;;;;;;4.10;1.30;;;;;;;7.39;75.94;94146.88;106891;1274;22633;-80
2024/01/04 04:06:05;;;;;;;6.40;1.10;;;;;;;7.40;75.96;94153.16;106908;1274;24202;-80
2024/01/04 04:08:33;;;;;;;2.60;1.00;;;;;;;7.42;75.98;94146.27;106882;1274;23900;-80
2024/01/04 04:11:01;;;;;;;5.20;1.20;;;;;;;7.42;75.96;94146.46;106840;1274;24296;-79
2024/01/04 04:13:31;;;;;;;4.20;0.90;;;;;;;7.41;75.79;94147.89;106737;1274;22531;-80
2024/01/04 04:16:01;;;;;;;3.00;1.30;;;;;;;7.40;75.92;94145.83;106845;1274;22523;-80
2024/01/04 04:18:29;;;;;;;3.90;1.30;;;;;;;7.36;76.06;94140.50;106770;1274;22520;-80
2024/01/04 04:20:58;;;;;;;3.80;1.00;;;;;;;7.30;76.10;94143.83;106677;1274;25338;-80
2024/01/04 04:23:26;;;;;;;2.80;1.00;;;;;;;7.26;75.92;94140.61;106808;1274;25507;-80
2024/01/04 04:25:55;;;;;;;5.40;1.00;;;;;;;7.26;76.14;94139.05;106703;1274;24833;-80
2024/01/04 04:28:26;;;;;;;4.60;1.10;;;;;;;7.29;75.80;94133.91;106855;1274;25359;-80
2024/01/04 04:30:54;;;;;;;4.40;1.40;;;;;;;7.39;75.41;94131.34;106815;1274;22582;-80
2024/01/04 04:33:23;;;;;;;2.90;1.30;;;;;;;7.45;75.35;94126.77;106807;1274;25336;-80
2024/01/04 04:35:51;;;;;;;4.20;1.10;;;;;;;7.44;75.48;94128.19;106864;1274;25313;-80
2024/01/04 04:38:29;;;;;;;2.60;0.90;;;;;;;7.41;75.60;94127.79;106818;1274;22540;-80
2024/01/04 04:40:57;;;;;;;4.10;0.90;;;;;;;7.32;75.57;94117.52;106842;1274;24257;-80
2024/01/04 04:43:25;;;;;;;4.80;0.80;;;;;;;7.30;75.88;94112.34;106839;1274;22523;-79
2024/01/04 04:45:55;;;;;;;4.30;1.10;;;;;;;7.29;75.98;94107.30;106771;1274;22586;-80
2024/01/04 04:48:24;;;;;;;4.70;1.10;;;;;;;7.36;76.07;94105.86;106842;1274;25482;-78
2024/01/04 04:50:54;;;;;;;6.10;1.40;;;;;;;7.38;76.05;94098.28;106871;1274;22640;-80
2024/01/04 04:53:22;;;;;;;3.60;0.90;;;;;;;7.41;76.22;94086.65;106812;1274;22536;-80
2024/01/04 04:55:50;;;;;;;3.90;1.30;;;;;;;7.42;76.28;94074.91;106847;1274;24353;-80
2024/01/04 04:58:19;;;;;;;5.60;1.10;;;;;;;7.42;76.47;94072.80;106842;1274;25310;-80
2024/01/04 05:00:47;;;;;;;2.50;1.10;;;;;;;7.38;76.43;94077.64;106733;1274;22514;-80
2024/01/04 05:03:15;;;;;;;3.50;1.20;;;;;;;7.39;76.44;94083.41;106737;1274;23989;-80
2024/01/04 05:05:43;;;;;;;3.70;1.40;;;;;;;7.45;75.97;94097.02;106688;1274;24232;-80
2024/01/04 05:08:12;;;;;;;3.80;1.40;;;;;;;7.48;76.00;94100.96;106769;1274;24244;-80
2024/01/04 05:10:41;;;;;;;3.00;1.20;;;;;;;7.44;76.31;94108.61;106824;1265;25325;-79
2024/01/04 05:13:09;;;;;;;4.80;1.00;;;;;;;7.45;76.18;94111.56;106823;1274;22523;-80
2024/01/04 05:15:37;;;;;;;5.60;1.20;;;;;;;7.51;76.10;94117.67;106807;1274;22678;-79
2024/01/04 05:18:08;;;;;;;7.90;2.10;;;;;;;7.63;75.97;94111.20;106735;1274;25473;-79
2024/01/04 05:20:37;;;;;;;1.80;0.90;;;;;;;7.66;76.21;94117.55;106885;1274;22564;-81
2024/01/04 05:23:07;;;;;;;3.70;1.20;;;;;;;7.67;76.53;94141.66;106849;1274;26054;-80
2024/01/04 05:25:35;;;;;;;5.40;1.20;;;;;;;7.65;77.05;94171.15;106754;1274;25424;-80
2024/01/04 05:28:07;;;;;;;4.40;1.20;;;;;;;7.64;77.32;94159.96;106754;1274;24390;-81
2024/01/04 05:30:35;;;;;;;3.00;0.80;;;;;;;7.61;77.47;94147.80;106717;1274;22586;-79
2024/01/04 05:33:04;;;;;;;4.30;1.10;;;;;;;7.58;78.03;94142.45;106776;1274;24470;-80
2024/01/04 05:35:33;;;;;;;4.20;1.50;;;;;;;7.54;78.35;94136.98;106749;1274;24264;-80
2024/01/04 05:38:01;;;;;;;2.70;0.90;;;;;;;7.48;78.49;94126.35;106825;1274;22601;-80
2024/01/04 05:40:29;;;;;;;5.30;1.30;;;;;;;7.36;79.05;94127.75;106816;1274;22664;-80
2024/01/04 05:42:58;;;;;;;5.50;1.30;;;;;;;7.18;80.31;94126.33;106058;1274;675461;-80
2024/01/04 05:45:27;;;;;;;3.80;0.80;;;;;;;7.09;80.15;94130.44;106893;1274;22516;-80
2024/01/04 05:47:55;;;;;;;1.60;0.90;;;;;;;6.97;80.85;94130.95;106768;1274;22558;-81
2024/01/04 05:50:23;;;;;;;1.90;0.70;;;;;;;6.89;81.25;94119.28;106673;1274;25462;-80
2024/01/04 05:52:52;;;;;;;2.20;0.70;;;;;;;6.74;81.84;94107.13;106777;1274;22525;-80
2024/01/04 05:55:20;;;;;;;4.00;1.10;;;;;;;6.67;81.93;94099.29;106781;1274;23129;-80
2024/01/04 05:57:48;;;;;;;1.80;0.90;;;;;;;6.66;82.00;94090.41;106701;1274;22524;-81
2024/01/04 06:00:17;;;;;;;5.20;1.50;;;;;;;6.63;81.81;94082.79;106896;1274;25609;-81
2024/01/04 06:02:47;;;;;;;3.80;1.40;;;;;;;6.60;81.72;94070.84;106769;1274;24471;-80
2024/01/04 06:05:16;;;;;;;2.50;1.20;;;;;;;6.54;82.01;94077.48;106703;1266;22518;-80
2024/01/04 06:07:44;;;;;;;4.30;1.50;;;;;;;6.49;82.37;94079.86;106767;1274;22643;-80
2024/01/04 06:10:12;;;;;;;8.30;1.50;;;;;;;6.49;82.49;94082.98;106801;1274;22516;-80
2024/01/04 06:12:42;;;;;;;5.60;1.50;;;;;;;6.48;82.09;94079.53;106811;1274;22533;-80
2024/01/04 06:15:10;;;;;;;7.10;3.30;;;;;;;6.40;82.00;94081.86;106825;1274;22527;-80
2024/01/04 06:17:38;;;;;;;6.00;2.30;;;;;;;6.29;82.44;94086.68;106799;1274;22507;-80
2024/01/04 06:20:08;;;;;;;5.70;2.30;;;;;;;6.26;83.33;94082.76;106658;1274;22634;-80
2024/01/04 06:22:38;;;;;;;6.50;2.40;;;;;;;6.22;82.95;94091.74;106793;1274;22551;-80
2024/01/04 06:25:08;;;;;;;8.60;2.90;;;;;;;6.20;83.00;94113.27;106685;1274;24249;-80
2024/01/04 06:27:36;;;;;;;8.20;3.80;;;;;;;6.22;83.44;94144.84;106811;1274;22569;-80
2024/01/04 06:30:06;;;;;;;3.20;2.00;;;;;;;6.21;84.17;94155.70;106758;1263;22643;-79
2024/01/04 06:32:34;;;;;;;1.90;0.90;;;;;;;6.38;84.08;94153.52;106802;1274;22531;-79
2024/01/04 06:35:03;;;;;;;3.70;2.00;;;;;;;6.65;83.53;94153.84;106794;1274;25294;-79
2024/01/04 06:37:31;;;;;;;2.40;1.40;;;;;;;6.82;83.17;94156.54;106754;1274;22534;-81
2024/01/04 06:39:59;;;;;;;1.40;0.80;;;;;;;6.91;83.12;94152.64;106713;1274;25378;-81
2024/01/04 06:42:27;;;;;;;2.90;0.90;;;;;;;6.91;83.56;94153.50;106792;1274;22517;-80
2024/01/04 06:44:55;;;;;;;1.20;1.00;;;;;;;6.89;83.51;94144.66;106765;1274;22571;-81
2024/01/04 06:47:24;;;;;;;1.50;0.90;;;;;;;6.89;83.53;94142.02;106876;1274;24218;-81
2024/01/04 06:49:52;;;;;;;2.30;1.40;;;;;;;6.88;83.60;94146.25;106799;1274;22546;-81
2024/01/04 06:52:34;;;;;;;7.60;6.00;;;;;;;6.89;83.34;94143.77;106760;1274;22785;-82
2024/01/04 06:55:02;;;;;;;5.30;3.90;;;;;;;6.86;83.45;94134.23;106831;1274;22558;-80
2024/01/04 06:57:30;;;;;;;1.00;0.70;;;;;;;6.86;82.60;94135.64;106784;1263;24304;-79
2024/01/04 06:59:59;;;;;;;0.70;0.50;;;;;;;6.85;82.15;94141.42;106811;1274;24209;-82
2024/01/04 07:02:27;;;;;;;1.80;0.50;;;;;;;6.83;81.82;94149.70;106782;1274;24399;-80
2024/01/04 07:04:55;;;;;;;0.90;0.40;;;;;;;6.81;81.95;94148.20;106785;1272;24215;-82
2024/01/04 07:07:24;;;;;;;0.40;0.40;;;;;;;6.73;82.08;94146.47;106792;1274;22543;-82
2024/01/04 07:09:52;;;;;;;0.70;0.40;;;;;;;6.66;82.08;94144.06;106873;1274;24403;-80
2024/01/04 07:12:20;;;;;;;1.20;1.10;;;;;;;6.58;82.24;94138.14;106820;1274;25405;-81
2024/01/04 07:14:48;;;;;;;0.80;0.60;;;;;;;6.54;82.25;94124.29;106703;1274;25815;-82
2024/01/04 07:17:17;;;;;;;0.40;0.40;;;;;;;6.50;81.74;94131.89;106800;1274;25494;-82
2024/01/04 07:19:45;;;;;;;1.20;0.70;;;;;;;6.51;82.07;94136.23;106825;1274;26605;-82
2024/01/04 07:22:15;;;;;;;0.50;0.50;;;;;;;6.46;82.12;94136.00;106817;1274;22626;-82
2024/01/04 07:24:43;;;;;;;1.20;0.50;;;;;;;6.46;81.97;94138.10;106690;1274;22566;-82
2024/01/04 07:27:11;;;;;;;0.40;0.30;;;;;;;6.47;82.19;94145.41;106812;1274;22520;-81
2024/01/04 07:29:40;;;;;;;0.90;0.70;;;;;;;6.48;82.06;94149.05;106851;1274;24066;-81
2024/01/04 07:32:09;;;;;;;78.60;43.60;;;;;;;6.49;82.42;94144.13;106883;1254;23349;-81
2024/01/04 07:34:39;;;;;;;22.00;12.40;;;;;;;6.50;82.45;94142.19;106859;1274;22518;-82
2024/01/04 07:37:07;;;;;;;2.10;1.50;;;;;;;6.50;82.54;94140.98;106879;1274;22555;-82
2024/01/04 07:39:36;;;;;;;5.80;3.30;;;;;;;6.49;82.63;94139.08;106811;1273;22543;-81
2024/01/04 07:42:04;;;;;;;7.10;5.70;;;;;;;6.49;82.83;94137.66;106789;1274;22558;-81
2024/01/04 07:44:33;;;;;;;0.90;0.80;;;;;;;6.49;83.02;94133.48;106753;1274;22528;-81
2024/01/04 07:47:01;;;;;;;1.70;1.40;;;;;;;6.51;82.94;94136.23;106758;1274;22534;-80
2024/01/04 07:49:29;;;;;;;0.90;0.70;;;;;;;6.57;83.09;94133.45;106799;1274;24292;-81
2024/01/04 07:51:58;;;;;;;0.50;0.50;;;;;;;6.61;82.64;94134.41;106833;1274;26667;-80
2024/01/04 07:54:26;;;;;;;3.40;1.30;;;;;;;6.64;82.68;94128.89;106625;1272;23916;-78
2024/01/04 07:57:05;;;;;;;2.60;1.50;;;;;;;6.67;82.87;94126.55;106774;1274;22633;-82
2024/01/04 07:59:34;;;;;;;2.20;1.10;;;;;;;6.70;82.88;94124.38;106876;1274;22966;-81
2024/01/04 08:02:02;;;;;;;1.30;1.10;;;;;;;6.69;82.86;94124.06;106807;1274;22626;-81
2024/01/04 08:04:32;;;;;;;0.80;0.50;;;;;;;6.72;83.30;94131.13;106904;1274;24054;-81
2024/01/04 08:07:00;;;;;;;2.40;1.20;;;;;;;6.76;83.37;94136.79;106847;1274;24346;-82
2024/01/04 08:09:28;;;;;;;1.80;1.40;;;;;;;6.79;83.60;94130.25;106789;1274;24040;-81
2024/01/04 08:11:56;;;;;;;0.90;0.80;;;;;;;6.80;83.84;94136.85;106715;1274;23803;-82
2024/01/04 08:14:25;;;;;;;1.20;0.70;;;;;;;6.72;83.90;94147.91;106761;1274;22781;-81
2024/01/04 08:16:53;;;;;;;1.30;0.60;;;;;;;6.68;83.94;94137.90;106766;1274;25331;-81
2024/01/04 08:19:21;;;;;;;2.80;2.50;;;;;;;6.67;83.79;94139.47;106825;1274;25479;-81
2024/01/04 08:21:49;;;;;;;4.80;3.60;;;;;;;6.65;83.73;94132.03;106717;1274;24267;-82
2024/01/04 08:24:17;;;;;;;13.80;8.20;;;;;;;6.63;83.62;94122.98;106794;1274;22647;-82
2024/01/04 08:26:45;;;;;;;10.90;6.50;;;;;;;6.65;83.72;94133.42;106818;1274;23890;-82
2024/01/04 08:29:14;;;;;;;11.10;5.30;;;;;;;6.65;83.60;94133.42;106780;1274;22518;-82
2024/01/04 08:31:42;;;;;;;7.30;4.20;;;;;;;6.63;84.28;94149.20;106850;1274;24389;-81
2024/01/04 08:34:10;;;;;;;6.50;4.40;;;;;;;6.59;84.45;94160.49;106839;1274;24260;-82
2024/01/04 08:36:39;;;;;;;3.10;1.70;;;;;;;6.54;84.59;94163.40;106828;1263;22523;-81
2024/01/04 08:39:07;;;;;;;5.10;2.50;;;;;;;6.51;84.73;94170.81;106830;1274;24460;-82
2024/01/04 08:41:35;;;;;;;5.30;2.80;;;;;;;6.52;84.74;94165.05;106801;1274;25375;-82
2024/01/04 08:44:04;;;;;;;4.10;2.00;;;;;;;6.50;84.66;94163.52;106753;1274;26526;-82
2024/01/04 08:46:37;;;;;;;3.40;2.10;;;;;;;6.48;84.58;94166.70;106854;1274;22534;-83
2024/01/04 08:49:07;;;;;;;9.30;4.80;;;;;;;6.47;84.86;94159.92;106728;1274;22527;-82
2024/01/04 08:51:36;;;;;;;1.00;0.70;;;;;;;6.47;85.28;94154.33;106821;1274;22524;-82
2024/01/04 08:54:04;;;;;;;1.30;0.90;;;;;;;6.50;85.67;94156.51;106791;1274;22730;-82
2024/01/04 08:56:33;;;;;;;8.10;5.70;;;;;;;6.57;85.47;94165.78;106743;1263;24238;-82
2024/01/04 08:59:03;;;;;;;5.80;2.70;;;;;;;6.64;85.61;94161.74;106763;1274;24014;-81
2024/01/04 09:01:31;;;;;;;3.20;1.80;;;;;;;6.74;86.91;94161.13;106826;1274;22520;-83
2024/01/04 09:03:59;;;;;;;4.30;2.50;;;;;;;6.81;86.22;94153.09;106803;1274;25364;-82
2024/01/04 09:06:29;;;;;;;5.70;3.70;;;;;;;6.91;86.11;94154.73;106861;1274;25522;-82
2024/01/04 09:08:59;;;;;;;3.30;2.50;;;;;;;6.99;85.89;94147.53;106811;1274;23017;-79
2024/01/04 09:11:28;;;;;;;5.70;1.90;;;;;;;7.06;85.63;94149.42;106847;1274;22517;-82
2024/01/04 09:13:57;;;;;;;4.40;2.10;;;;;;;7.15;84.53;94141.13;106775;1272;22634;-82
2024/01/04 09:16:25;;;;;;;6.90;2.10;;;;;;;7.28;84.11;94141.63;106881;1274;25497;-81
2024/01/04 09:18:53;;;;;;;6.50;4.70;;;;;;;7.41;82.26;94138.97;106790;1274;25701;-81
2024/01/04 09:21:22;;;;;;;5.70;2.30;;;;;;;7.53;80.89;94139.29;106818;1274;23874;-82
2024/01/04 09:23:52;;;;;;;4.40;4.00;;;;;;;7.66;81.08;94143.98;106849;1275;22521;-81
2024/01/04 09:26:20;;;;;;;5.60;2.00;;;;;;;7.77;80.51;94141.19;106730;1274;22593;-82
2024/01/04 09:28:48;;;;;;;5.70;2.10;;;;;;;7.92;80.37;94138.80;106845;1274;25411;-82
2024/01/04 09:31:16;;;;;;;6.60;3.70;;;;;;;8.03;79.57;94138.63;106643;1274;25400;-81
2024/01/04 09:33:45;;;;;;;7.70;4.60;;;;;;;8.13;78.25;94139.17;106774;1274;22525;-81
2024/01/04 09:36:13;;;;;;;4.70;2.00;;;;;;;8.21;78.68;94133.83;106809;1266;22521;-83
2024/01/04 09:38:42;;;;;;;8.30;5.50;;;;;;;8.38;78.29;94130.81;106808;1274;25494;-82
2024/01/04 09:41:22;;;;;;;5.20;2.50;;;;;;;8.56;78.03;94128.84;106730;1274;24403;-81
2024/01/04 09:44:03;;;;;;;5.00;3.30;;;;;;;8.67;77.20;94119.88;106772;1274;22663;-81
2024/01/04 09:46:39;;;;;;;3.40;2.40;;;;;;;8.79;76.38;94124.35;107040;1274;24225;-81
2024/01/04 09:49:09;;;;;;;7.20;2.90;;;;;;;8.84;75.19;94123.30;106796;1274;26662;-80
2024/01/04 09:51:40;;;;;;;6.50;3.10;;;;;;;8.74;72.80;94129.64;106858;1274;24037;-81
2024/01/04 09:54:10;;;;;;;6.50;2.50;;;;;;;8.72;73.92;94130.92;106683;1274;22529;-80
2024/01/04 09:56:43;;;;;;;4.70;2.80;;;;;;;8.79;74.46;94131.55;106842;1274;22569;-81
2024/01/04 09:59:13;;;;;;;2.90;2.00;;;;;;;8.79;73.84;94129.60;106496;1274;22633;-80
2024/01/04 10:01:41;;;;;;;8.90;6.20;;;;;;;8.67;73.84;94131.45;106789;1274;22524;-81
2024/01/04 10:04:16;;;;;;;4.10;2.30;;;;;;;8.56;74.59;94129.36;106676;1274;22934;-82
2024/01/04 10:06:46;;;;;;;5.10;2.20;;;;;;;8.48;73.89;94122.64;106684;1274;22530;-81
2024/01/04 10:09:18;;;;;;;15.70;6.30;;;;;;;8.35;73.60;94121.65;106713;1274;23515;-78
2024/01/04 10:12:15;;;;;;;7.00;2.60;;;;;;;8.36;73.27;94120.92;106829;1274;24368;-81
2024/01/04 10:14:43;;;;;;;9.50;3.80;;;;;;;8.50;73.76;94121.00;106799;1274;22543;-81
2024/01/04 10:17:11;;;;;;;12.40;6.20;;;;;;;8.58;74.24;94115.45;106681;1274;24244;-79
2024/01/04 10:19:40;;;;;;;3.90;2.70;;;;;;;9.06;72.75;94110.79;106685;1274;24073;-81
2024/01/04 10:22:09;;;;;;;2.50;1.90;;;;;;;9.64;71.44;94107.00;106743;1274;25334;-80
2024/01/04 10:24:38;;;;;;;3.60;1.90;;;;;;;10.16;68.33;94103.56;106821;1274;24281;-80
2024/01/04 10:27:08;;;;;;;6.00;3.20;;;;;;;10.62;67.96;94110.28;106463;1276;25357;-81
2024/01/04 10:29:38;;;;;;;4.60;2.60;;;;;;;11.24;67.04;94106.33;106700;1273;24222;-80
2024/01/04 10:32:10;;;;;;;3.40;2.10;;;;;;;11.68;64.16;94107.51;106661;1276;22656;-81
2024/01/04 10:34:40;;;;;;;3.50;2.70;;;;;;;12.02;63.65;94107.70;106595;1276;25256;-81
2024/01/04 10:37:12;;;;;;;2.00;1.70;;;;;;;12.32;61.63;94098.11;106671;1276;24769;-80
2024/01/04 10:39:55;;;;;;;4.20;2.10;;;;;;;12.40;59.77;94092.98;106648;1276;24086;-80
2024/01/04 10:42:24;;;;;;;3.10;2.30;;;;;;;12.32;59.62;94093.52;106637;1276;24341;-79
2024/01/04 10:44:54;;;;;;;4.70;2.00;;;;;;;12.31;59.33;94093.40;106677;1276;25396;-79
2024/01/04 10:47:23;;;;;;;4.20;2.80;;;;;;;12.12;58.22;94088.35;106741;1276;22648;-79
2024/01/04 10:49:58;;;;;;;3.70;1.80;;;;;;;11.83;59.38;94091.85;106657;1276;24222;-79
2024/01/04 10:52:31;;;;;;;2.80;1.80;;;;;;;11.87;58.90;94096.59;106655;1276;24020;-79
2024/01/04 10:55:02;;;;;;;2.60;1.80;;;;;;;11.92;58.90;94090.54;106635;1276;22519;-79
2024/01/04 10:57:33;;;;;;;2.50;1.60;;;;;;;12.26;58.58;94090.49;106635;1276;25368;-80
2024/01/04 11:00:03;;;;;;;4.40;1.80;;;;;;;12.55;58.85;94090.09;106668;1276;22567;-80
2024/01/04 11:02:34;;;;;;;8.10;6.90;;;;;;;12.85;57.30;94094.23;106856;1276;25243;-79
2024/01/04 11:05:04;;;;;;;3.50;2.20;;;;;;;13.05;56.86;94087.36;106597;1276;22525;-80
2024/01/04 11:07:34;;;;;;;2.60;1.70;;;;;;;13.31;56.51;94094.83;106627;1276;22544;-79
2024/01/04 11:10:02;;;;;;;2.60;1.80;;;;;;;13.45;54.59;94090.60;106653;1276;25341;-80
2024/01/04 11:12:32;;;;;;;2.30;1.70;;;;;;;13.32;55.89;94089.35;106574;1276;23914;-81
2024/01/04 11:15:02;;;;;;;1.80;1.50;;;;;;;13.16;55.61;94099.32;106704;1276;25261;-80
2024/01/04 11:17:59;;;;;;;5.50;5.00;;;;;;;12.57;55.60;94106.56;106637;1276;22527;-80
2024/01/04 11:20:42;;;;;;;4.60;2.90;;;;;;;12.14;57.02;94114.13;106550;1276;22523;-80
2024/01/04 11:23:22;;;;;;;;;;;;;;;11.51;57.67;94121.12;106685;1276;22497;-80
2024/01/04 11:26:19;;;;;;;3.40;1.50;;;;;;;10.98;59.36;94130.37;106633;1276;24040;-80
2024/01/04 11:28:48;;;;;;;3.80;1.80;;;;;;;10.34;61.09;94125.14;106640;1272;22731;-79
2024/01/04 11:31:16;;;;;;;2.80;2.10;;;;;;;10.21;62.10;94120.91;106675;1276;22532;-80
2024/01/04 11:33:48;;;;;;;3.30;2.00;;;;;;;10.46;61.75;94118.87;106626;1276;22525;-80
2024/01/04 11:36:19;;;;;;;3.30;2.00;;;;;;;10.29;61.59;94117.98;106652;1276;22722;-80
2024/01/04 11:38:48;;;;;;;4.00;2.10;;;;;;;10.15;62.97;94120.80;106611;1276;22545;-80
2024/01/04 11:41:17;;;;;;;3.80;2.20;;;;;;;10.46;63.30;94112.19;106620;1276;22633;-80